sensor_id;sensor_type;location;lat;lon;timestamp;noise_LAeq;noise_LA_min;noise_LA_max;noise_LA01;noise_LA95
41704;Laerm;861;48.808;9.006;2023-08-01T00:00:12;35.69;34.42;36.86;;
41704;Laerm;861;48.808;9.006;2023-08-01T00:02:40;35.62;34.39;36.86;;
41704;Laerm;861;48.808;9.006;2023-08-01T00:05:09;35.47;34.06;36.68;;
41704;Laerm;861;48.808;9.006;2023-08-01T00:07:35;35.41;34.20;37.00;;
41704;Laerm;861;48.808;9.006;2023-08-01T00:10:03;35.47;34.30;36.55;;
41704;Laerm;861;48.808;9.006;2023-08-01T00:12:29;35.50;34.28;36.80;;
41704;Laerm;861;48.808;9.006;2023-08-01T00:14:57;35.51;34.29;36.93;;
41704;Laerm;861;48.808;9.006;2023-08-01T00:17:23;35.58;34.21;37.60;;
41704;Laerm;861;48.808;9.006;2023-08-01T00:19:50;35.63;34.25;36.79;;
41704;Laerm;861;48.808;9.006;2023-08-01T00:22:16;35.67;34.31;37.01;;
41704;Laerm;861;48.808;9.006;2023-08-01T00:24:43;35.71;34.36;36.84;;
41704;Laerm;861;48.808;9.006;2023-08-01T00:27:10;35.72;34.15;37.01;;
41704;Laerm;861;48.808;9.006;2023-08-01T00:29:37;35.71;34.36;37.01;;
41704;Laerm;861;48.808;9.006;2023-08-01T00:32:04;35.73;34.53;38.54;;
41704;Laerm;861;48.808;9.006;2023-08-01T00:34:31;35.70;34.10;36.74;;
41704;Laerm;861;48.808;9.006;2023-08-01T00:36:58;35.71;34.57;36.96;;
41704;Laerm;861;48.808;9.006;2023-08-01T00:39:24;35.73;34.38;36.85;;
41704;Laerm;861;48.808;9.006;2023-08-01T00:41:51;35.73;34.38;37.00;;
41704;Laerm;861;48.808;9.006;2023-08-01T00:44:17;35.73;34.49;37.02;;
41704;Laerm;861;48.808;9.006;2023-08-01T00:46:45;35.74;34.31;37.10;;
41704;Laerm;861;48.808;9.006;2023-08-01T00:49:14;35.73;34.48;37.07;;
41704;Laerm;861;48.808;9.006;2023-08-01T00:51:43;35.79;34.58;36.89;;
41704;Laerm;861;48.808;9.006;2023-08-01T00:54:10;35.80;34.17;37.13;;
41704;Laerm;861;48.808;9.006;2023-08-01T00:56:37;35.81;34.47;37.06;;
41704;Laerm;861;48.808;9.006;2023-08-01T00:59:06;35.82;34.59;37.14;;
41704;Laerm;861;48.808;9.006;2023-08-01T01:01:33;35.80;34.22;37.07;;
41704;Laerm;861;48.808;9.006;2023-08-01T01:04:00;35.78;34.46;37.02;;
41704;Laerm;861;48.808;9.006;2023-08-01T01:07:00;35.79;34.46;36.88;;
41704;Laerm;861;48.808;9.006;2023-08-01T01:09:30;35.79;34.49;37.05;;
41704;Laerm;861;48.808;9.006;2023-08-01T01:12:01;35.78;34.48;36.95;;
41704;Laerm;861;48.808;9.006;2023-08-01T01:14:29;35.79;34.47;36.89;;
41704;Laerm;861;48.808;9.006;2023-08-01T01:16:56;35.79;34.48;37.03;;
41704;Laerm;861;48.808;9.006;2023-08-01T01:19:24;35.75;34.28;36.96;;
41704;Laerm;861;48.808;9.006;2023-08-01T01:21:52;35.70;34.29;36.89;;
41704;Laerm;861;48.808;9.006;2023-08-01T01:24:22;35.58;34.28;37.38;;
41704;Laerm;861;48.808;9.006;2023-08-01T01:26:50;35.54;34.17;36.67;;
41704;Laerm;861;48.808;9.006;2023-08-01T01:29:20;35.49;34.27;39.87;;
41704;Laerm;861;48.808;9.006;2023-08-01T01:31:50;35.35;34.14;38.39;;
41704;Laerm;861;48.808;9.006;2023-08-01T01:34:16;35.14;33.75;57.21;;
41704;Laerm;861;48.808;9.006;2023-08-01T01:36:43;34.30;32.75;55.24;;
41704;Laerm;861;48.808;9.006;2023-08-01T01:39:10;33.67;32.42;47.14;;
41704;Laerm;861;48.808;9.006;2023-08-01T01:41:36;33.39;32.08;34.69;;
41704;Laerm;861;48.808;9.006;2023-08-01T01:44:03;33.21;31.77;36.14;;
41704;Laerm;861;48.808;9.006;2023-08-01T01:46:29;33.07;31.74;34.18;;
41704;Laerm;861;48.808;9.006;2023-08-01T01:48:56;33.00;31.64;34.19;;
41704;Laerm;861;48.808;9.006;2023-08-01T01:51:26;32.99;31.47;34.16;;
41704;Laerm;861;48.808;9.006;2023-08-01T01:53:53;33.02;31.54;34.34;;
41704;Laerm;861;48.808;9.006;2023-08-01T01:56:20;33.03;31.80;34.13;;
41704;Laerm;861;48.808;9.006;2023-08-01T01:58:46;33.06;31.47;34.18;;
41704;Laerm;861;48.808;9.006;2023-08-01T02:01:13;33.08;31.89;34.44;;
41704;Laerm;861;48.808;9.006;2023-08-01T02:03:39;33.12;32.01;34.31;;
41704;Laerm;861;48.808;9.006;2023-08-01T02:06:06;33.12;31.78;34.37;;
41704;Laerm;861;48.808;9.006;2023-08-01T02:08:33;33.13;31.91;34.33;;
41704;Laerm;861;48.808;9.006;2023-08-01T02:10:59;33.16;31.95;34.34;;
41704;Laerm;861;48.808;9.006;2023-08-01T02:13:32;33.20;31.88;34.44;;
41704;Laerm;861;48.808;9.006;2023-08-01T02:15:58;33.22;31.94;34.38;;
41704;Laerm;861;48.808;9.006;2023-08-01T02:18:25;33.24;32.03;34.52;;
41704;Laerm;861;48.808;9.006;2023-08-01T02:20:51;33.31;32.04;36.11;;
41704;Laerm;861;48.808;9.006;2023-08-01T02:23:18;33.38;32.18;35.49;;
41704;Laerm;861;48.808;9.006;2023-08-01T02:25:44;33.42;32.19;36.34;;
41704;Laerm;861;48.808;9.006;2023-08-01T02:28:11;33.48;32.14;36.16;;
41704;Laerm;861;48.808;9.006;2023-08-01T02:30:39;33.51;32.03;34.89;;
41704;Laerm;861;48.808;9.006;2023-08-01T02:33:06;33.51;32.14;36.44;;
41704;Laerm;861;48.808;9.006;2023-08-01T02:35:33;33.52;32.39;34.63;;
41704;Laerm;861;48.808;9.006;2023-08-01T02:38:00;33.53;32.34;34.74;;
41704;Laerm;861;48.808;9.006;2023-08-01T02:40:26;33.54;32.29;34.74;;
41704;Laerm;861;48.808;9.006;2023-08-01T02:42:53;33.56;32.28;34.85;;
41704;Laerm;861;48.808;9.006;2023-08-01T02:45:20;33.60;32.35;34.74;;
41704;Laerm;861;48.808;9.006;2023-08-01T02:47:46;33.64;32.40;34.81;;
41704;Laerm;861;48.808;9.006;2023-08-01T02:50:13;33.71;32.23;34.96;;
41704;Laerm;861;48.808;9.006;2023-08-01T02:52:39;33.82;32.55;35.06;;
41704;Laerm;861;48.808;9.006;2023-08-01T02:55:07;33.94;32.74;35.06;;
41704;Laerm;861;48.808;9.006;2023-08-01T02:57:33;34.04;32.84;35.14;;
41704;Laerm;861;48.808;9.006;2023-08-01T03:00:00;34.12;32.75;35.28;;
41704;Laerm;861;48.808;9.006;2023-08-01T03:02:26;34.20;32.95;35.53;;
41704;Laerm;861;48.808;9.006;2023-08-01T03:04:54;34.29;32.99;35.55;;
41704;Laerm;861;48.808;9.006;2023-08-01T03:07:20;34.42;33.11;35.80;;
41704;Laerm;861;48.808;9.006;2023-08-01T03:09:46;34.53;33.30;35.68;;
41704;Laerm;861;48.808;9.006;2023-08-01T03:12:13;34.56;33.06;37.81;;
41704;Laerm;861;48.808;9.006;2023-08-01T03:14:40;34.66;33.29;36.99;;
41704;Laerm;861;48.808;9.006;2023-08-01T03:17:09;34.80;33.24;36.24;;
41704;Laerm;861;48.808;9.006;2023-08-01T03:19:36;34.96;33.50;49.12;;
41704;Laerm;861;48.808;9.006;2023-08-01T03:22:03;34.93;33.61;36.26;;
41704;Laerm;861;48.808;9.006;2023-08-01T03:24:30;35.04;33.68;37.26;;
41704;Laerm;861;48.808;9.006;2023-08-01T03:26:56;35.17;33.62;45.17;;
41704;Laerm;861;48.808;9.006;2023-08-01T03:29:23;35.27;34.02;40.60;;
41704;Laerm;861;48.808;9.006;2023-08-01T03:31:49;35.29;34.05;38.24;;
41704;Laerm;861;48.808;9.006;2023-08-01T03:34:16;35.38;34.05;41.87;;
41704;Laerm;861;48.808;9.006;2023-08-01T03:36:42;35.51;34.19;36.96;;
41704;Laerm;861;48.808;9.006;2023-08-01T03:39:09;35.65;34.41;36.98;;
41704;Laerm;861;48.808;9.006;2023-08-01T03:41:37;35.69;34.47;36.93;;
41704;Laerm;861;48.808;9.006;2023-08-01T03:44:04;35.66;34.22;36.89;;
41704;Laerm;861;48.808;9.006;2023-08-01T03:46:31;35.66;34.25;36.92;;
41704;Laerm;861;48.808;9.006;2023-08-01T03:48:58;35.62;34.33;36.97;;
41704;Laerm;861;48.808;9.006;2023-08-01T03:51:24;35.65;34.33;36.81;;
41704;Laerm;861;48.808;9.006;2023-08-01T03:53:51;35.67;34.24;36.88;;
41704;Laerm;861;48.808;9.006;2023-08-01T03:56:17;35.67;34.20;37.15;;
41704;Laerm;861;48.808;9.006;2023-08-01T03:58:44;35.71;34.54;36.97;;
41704;Laerm;861;48.808;9.006;2023-08-01T04:01:10;35.71;34.32;37.13;;
41704;Laerm;861;48.808;9.006;2023-08-01T04:03:38;35.74;34.31;36.95;;
41704;Laerm;861;48.808;9.006;2023-08-01T04:06:04;35.75;34.39;37.16;;
41704;Laerm;861;48.808;9.006;2023-08-01T04:08:31;35.82;34.61;37.10;;
41704;Laerm;861;48.808;9.006;2023-08-01T04:10:57;35.80;34.50;37.08;;
41704;Laerm;861;48.808;9.006;2023-08-01T04:13:24;36.26;34.15;53.25;;
41704;Laerm;861;48.808;9.006;2023-08-01T04:15:50;35.66;34.29;45.96;;
41704;Laerm;861;48.808;9.006;2023-08-01T04:18:17;35.86;34.11;43.46;;
41704;Laerm;861;48.808;9.006;2023-08-01T04:20:43;36.01;34.26;52.22;;
41704;Laerm;861;48.808;9.006;2023-08-01T04:23:10;35.55;34.25;38.10;;
41704;Laerm;861;48.808;9.006;2023-08-01T04:25:36;35.73;34.20;48.57;;
41704;Laerm;861;48.808;9.006;2023-08-01T04:28:03;35.64;34.48;37.99;;
41704;Laerm;861;48.808;9.006;2023-08-01T04:30:30;35.59;34.37;36.77;;
41704;Laerm;861;48.808;9.006;2023-08-01T04:32:56;35.64;34.31;36.73;;
41704;Laerm;861;48.808;9.006;2023-08-01T04:35:22;35.76;34.41;45.90;;
41704;Laerm;861;48.808;9.006;2023-08-01T04:37:49;36.28;34.42;50.56;;
41704;Laerm;861;48.808;9.006;2023-08-01T04:40:16;35.86;34.44;39.64;;
41704;Laerm;861;48.808;9.006;2023-08-01T04:42:43;35.88;34.53;42.14;;
41704;Laerm;861;48.808;9.006;2023-08-01T04:45:10;35.86;34.68;40.31;;
41704;Laerm;861;48.808;9.006;2023-08-01T04:47:36;35.93;34.36;41.90;;
41704;Laerm;861;48.808;9.006;2023-08-01T04:50:03;36.17;34.47;47.13;;
41704;Laerm;861;48.808;9.006;2023-08-01T04:52:29;36.00;34.44;46.20;;
41704;Laerm;861;48.808;9.006;2023-08-01T04:54:56;35.95;34.43;44.30;;
41704;Laerm;861;48.808;9.006;2023-08-01T04:57:22;35.94;34.51;38.53;;
41704;Laerm;861;48.808;9.006;2023-08-01T04:59:49;35.92;34.55;39.12;;
41704;Laerm;861;48.808;9.006;2023-08-01T05:02:15;36.00;34.34;44.11;;
41704;Laerm;861;48.808;9.006;2023-08-01T05:04:42;35.92;34.73;37.22;;
41704;Laerm;861;48.808;9.006;2023-08-01T05:07:08;35.90;34.47;37.32;;
41704;Laerm;861;48.808;9.006;2023-08-01T05:09:35;35.87;34.68;37.14;;
41704;Laerm;861;48.808;9.006;2023-08-01T05:12:01;35.83;34.54;37.05;;
41704;Laerm;861;48.808;9.006;2023-08-01T05:14:31;35.81;34.45;38.48;;
41704;Laerm;861;48.808;9.006;2023-08-01T05:16:57;35.79;34.47;37.43;;
41704;Laerm;861;48.808;9.006;2023-08-01T05:19:24;35.77;34.49;37.66;;
41704;Laerm;861;48.808;9.006;2023-08-01T05:21:51;35.77;34.39;38.89;;
41704;Laerm;861;48.808;9.006;2023-08-01T05:24:17;35.75;34.44;36.82;;
41704;Laerm;861;48.808;9.006;2023-08-01T05:26:44;35.77;34.60;36.90;;
41704;Laerm;861;48.808;9.006;2023-08-01T05:29:10;35.78;34.52;37.68;;
41704;Laerm;861;48.808;9.006;2023-08-01T05:31:37;35.78;34.42;37.88;;
41704;Laerm;861;48.808;9.006;2023-08-01T05:34:03;35.78;34.46;39.86;;
41704;Laerm;861;48.808;9.006;2023-08-01T05:36:30;35.78;34.24;37.22;;
41704;Laerm;861;48.808;9.006;2023-08-01T05:38:57;35.79;34.52;37.96;;
41704;Laerm;861;48.808;9.006;2023-08-01T05:41:24;35.80;34.39;37.01;;
41704;Laerm;861;48.808;9.006;2023-08-01T05:43:51;35.79;34.55;36.97;;
41704;Laerm;861;48.808;9.006;2023-08-01T05:46:18;35.80;34.56;37.54;;
41704;Laerm;861;48.808;9.006;2023-08-01T05:48:45;35.80;34.46;37.09;;
41704;Laerm;861;48.808;9.006;2023-08-01T05:51:11;35.80;34.64;37.06;;
41704;Laerm;861;48.808;9.006;2023-08-01T05:53:38;35.85;34.62;37.33;;
41704;Laerm;861;48.808;9.006;2023-08-01T05:56:05;35.85;34.46;37.02;;
41704;Laerm;861;48.808;9.006;2023-08-01T05:58:32;35.86;34.71;37.14;;
41704;Laerm;861;48.808;9.006;2023-08-01T06:00:58;35.88;34.50;37.20;;
41704;Laerm;861;48.808;9.006;2023-08-01T06:03:25;36.01;34.57;44.00;;
41704;Laerm;861;48.808;9.006;2023-08-01T06:05:51;35.86;34.52;37.11;;
41704;Laerm;861;48.808;9.006;2023-08-01T06:08:18;35.87;34.55;37.02;;
41704;Laerm;861;48.808;9.006;2023-08-01T06:10:45;35.87;34.39;37.30;;
41704;Laerm;861;48.808;9.006;2023-08-01T06:13:11;35.84;34.57;37.11;;
41704;Laerm;861;48.808;9.006;2023-08-01T06:15:38;35.84;34.39;37.14;;
41704;Laerm;861;48.808;9.006;2023-08-01T06:18:04;35.85;34.48;37.06;;
41704;Laerm;861;48.808;9.006;2023-08-01T06:20:31;35.67;34.18;42.46;;
41704;Laerm;861;48.808;9.006;2023-08-01T06:22:58;35.20;33.24;59.31;;
41704;Laerm;861;48.808;9.006;2023-08-01T06:25:24;34.17;32.83;45.91;;
41704;Laerm;861;48.808;9.006;2023-08-01T06:27:51;33.85;32.41;49.99;;
41704;Laerm;861;48.808;9.006;2023-08-01T06:30:17;33.50;32.20;42.99;;
41704;Laerm;861;48.808;9.006;2023-08-01T06:32:44;33.29;32.07;35.10;;
41704;Laerm;861;48.808;9.006;2023-08-01T06:35:10;33.04;31.57;34.83;;
41704;Laerm;861;48.808;9.006;2023-08-01T06:37:37;32.90;31.54;38.25;;
41704;Laerm;861;48.808;9.006;2023-08-01T06:40:06;38.26;31.37;73.07;;
41704;Laerm;861;48.808;9.006;2023-08-01T06:42:33;32.67;31.32;33.91;;
41704;Laerm;861;48.808;9.006;2023-08-01T06:44:59;32.80;31.27;48.12;;
41704;Laerm;861;48.808;9.006;2023-08-01T06:47:26;40.62;31.22;75.29;;
41704;Laerm;861;48.808;9.006;2023-08-01T06:49:53;32.18;30.80;40.58;;
41704;Laerm;861;48.808;9.006;2023-08-01T06:52:20;31.86;30.46;42.77;;
41704;Laerm;861;48.808;9.006;2023-08-01T06:54:46;31.96;30.23;54.48;;
41704;Laerm;861;48.808;9.006;2023-08-01T06:57:13;39.33;30.07;74.81;;
41704;Laerm;861;48.808;9.006;2023-08-01T06:59:39;32.35;29.98;62.22;;
41704;Laerm;861;48.808;9.006;2023-08-01T07:02:07;31.05;29.79;32.67;;
41704;Laerm;861;48.808;9.006;2023-08-01T07:04:35;31.43;29.39;57.78;;
41704;Laerm;861;48.808;9.006;2023-08-01T07:07:01;30.82;29.43;35.95;;
41704;Laerm;861;48.808;9.006;2023-08-01T07:09:28;30.73;29.35;32.01;;
41704;Laerm;861;48.808;9.006;2023-08-01T07:11:55;30.70;29.46;31.89;;
41704;Laerm;861;48.808;9.006;2023-08-01T07:14:21;30.65;29.13;31.76;;
41704;Laerm;861;48.808;9.006;2023-08-01T07:16:48;30.62;29.36;33.79;;
41704;Laerm;861;48.808;9.006;2023-08-01T07:19:14;30.62;29.18;36.44;;
41704;Laerm;861;48.808;9.006;2023-08-01T07:21:41;30.58;29.13;34.17;;
41704;Laerm;861;48.808;9.006;2023-08-01T07:24:07;34.07;29.02;67.80;;
41704;Laerm;861;48.808;9.006;2023-08-01T07:26:34;32.21;29.16;62.25;;
41704;Laerm;861;48.808;9.006;2023-08-01T07:29:01;30.46;29.11;47.94;;
41704;Laerm;861;48.808;9.006;2023-08-01T07:31:27;30.42;29.08;44.91;;
41704;Laerm;861;48.808;9.006;2023-08-01T07:33:54;33.54;29.14;66.95;;
41704;Laerm;861;48.808;9.006;2023-08-01T07:36:21;30.42;28.97;49.33;;
41704;Laerm;861;48.808;9.006;2023-08-01T07:38:48;30.34;29.06;47.17;;
41704;Laerm;861;48.808;9.006;2023-08-01T07:41:14;30.27;29.12;31.82;;
41704;Laerm;861;48.808;9.006;2023-08-01T07:43:41;30.28;28.94;35.26;;
41704;Laerm;861;48.808;9.006;2023-08-01T07:46:08;30.23;28.56;31.50;;
41704;Laerm;861;48.808;9.006;2023-08-01T07:48:36;30.20;28.80;31.71;;
41704;Laerm;861;48.808;9.006;2023-08-01T07:51:03;30.17;28.84;34.73;;
41704;Laerm;861;48.808;9.006;2023-08-01T07:53:31;30.18;28.78;47.15;;
41704;Laerm;861;48.808;9.006;2023-08-01T07:55:58;30.11;28.94;31.30;;
41704;Laerm;861;48.808;9.006;2023-08-01T07:58:25;30.09;28.69;31.49;;
41704;Laerm;861;48.808;9.006;2023-08-01T08:00:51;30.08;28.73;31.37;;
41704;Laerm;861;48.808;9.006;2023-08-01T08:03:18;30.05;28.84;32.16;;
41704;Laerm;861;48.808;9.006;2023-08-01T08:05:45;30.04;28.60;34.55;;
41704;Laerm;861;48.808;9.006;2023-08-01T08:08:12;30.00;28.73;31.21;;
41704;Laerm;861;48.808;9.006;2023-08-01T08:10:38;29.98;28.61;32.12;;
41704;Laerm;861;48.808;9.006;2023-08-01T08:13:05;29.97;28.72;31.20;;
41704;Laerm;861;48.808;9.006;2023-08-01T08:15:31;29.97;28.79;31.84;;
41704;Laerm;861;48.808;9.006;2023-08-01T08:18:01;29.94;28.53;31.26;;
41704;Laerm;861;48.808;9.006;2023-08-01T08:20:43;29.89;28.55;34.72;;
41704;Laerm;861;48.808;9.006;2023-08-01T08:23:11;29.87;28.43;30.98;;
41704;Laerm;861;48.808;9.006;2023-08-01T08:25:43;29.85;28.68;34.64;;
41704;Laerm;861;48.808;9.006;2023-08-01T08:28:14;29.86;28.41;32.81;;
41704;Laerm;861;48.808;9.006;2023-08-01T08:30:41;29.83;28.42;38.03;;
41704;Laerm;861;48.808;9.006;2023-08-01T08:33:07;29.80;28.46;40.40;;
41704;Laerm;861;48.808;9.006;2023-08-01T08:35:34;29.78;28.31;30.92;;
41704;Laerm;861;48.808;9.006;2023-08-01T08:38:04;29.78;28.46;30.99;;
41704;Laerm;861;48.808;9.006;2023-08-01T08:40:33;29.78;28.46;31.41;;
41704;Laerm;861;48.808;9.006;2023-08-01T08:43:03;29.76;28.61;31.25;;
41704;Laerm;861;48.808;9.006;2023-08-01T08:45:40;29.75;28.42;30.86;;
41704;Laerm;861;48.808;9.006;2023-08-01T08:48:17;29.73;28.51;30.87;;
41704;Laerm;861;48.808;9.006;2023-08-01T08:50:48;29.72;28.25;30.95;;
41704;Laerm;861;48.808;9.006;2023-08-01T08:53:17;29.69;28.44;32.57;;
41704;Laerm;861;48.808;9.006;2023-08-01T08:55:44;29.68;28.22;30.88;;
41704;Laerm;861;48.808;9.006;2023-08-01T08:58:11;29.65;28.36;30.81;;
41704;Laerm;861;48.808;9.006;2023-08-01T09:00:38;29.63;28.14;31.17;;
41704;Laerm;861;48.808;9.006;2023-08-01T09:03:06;29.63;28.24;32.57;;
41704;Laerm;861;48.808;9.006;2023-08-01T09:05:49;29.59;28.25;30.99;;
41704;Laerm;861;48.808;9.006;2023-08-01T09:08:21;29.60;28.14;30.92;;
41704;Laerm;861;48.808;9.006;2023-08-01T09:10:51;29.61;28.38;30.68;;
41704;Laerm;861;48.808;9.006;2023-08-01T09:13:19;29.60;28.28;30.70;;
41704;Laerm;861;48.808;9.006;2023-08-01T09:15:47;29.59;28.27;30.85;;
41704;Laerm;861;48.808;9.006;2023-08-01T09:18:14;29.58;28.16;30.87;;
41704;Laerm;861;48.808;9.006;2023-08-01T09:20:50;29.59;28.30;30.83;;
41704;Laerm;861;48.808;9.006;2023-08-01T09:23:18;29.58;28.30;30.83;;
41704;Laerm;861;48.808;9.006;2023-08-01T09:25:45;29.59;28.34;30.87;;
41704;Laerm;861;48.808;9.006;2023-08-01T09:28:23;29.58;28.26;30.70;;
41704;Laerm;861;48.808;9.006;2023-08-01T09:30:54;29.58;28.42;30.93;;
41704;Laerm;861;48.808;9.006;2023-08-01T09:33:23;29.58;28.25;30.85;;
41704;Laerm;861;48.808;9.006;2023-08-01T09:35:53;29.58;28.12;30.77;;
41704;Laerm;861;48.808;9.006;2023-08-01T09:38:19;29.58;28.22;30.77;;
41704;Laerm;861;48.808;9.006;2023-08-01T09:40:47;29.59;28.31;30.98;;
41704;Laerm;861;48.808;9.006;2023-08-01T09:43:14;29.59;28.06;30.78;;
41704;Laerm;861;48.808;9.006;2023-08-01T09:45:54;29.58;28.17;37.92;;
41704;Laerm;861;48.808;9.006;2023-08-01T09:48:28;29.57;28.08;31.41;;
41704;Laerm;861;48.808;9.006;2023-08-01T09:51:24;29.56;28.41;30.61;;
41704;Laerm;861;48.808;9.006;2023-08-01T09:53:56;29.56;28.20;30.83;;
41704;Laerm;861;48.808;9.006;2023-08-01T09:56:26;29.73;28.24;51.97;;
41704;Laerm;861;48.808;9.006;2023-08-01T09:58:56;29.54;28.19;30.97;;
41704;Laerm;861;48.808;9.006;2023-08-01T10:01:25;29.54;28.03;30.79;;
41704;Laerm;861;48.808;9.006;2023-08-01T10:03:56;29.54;28.00;31.08;;
41704;Laerm;861;48.808;9.006;2023-08-01T10:06:30;29.52;28.26;30.64;;
41704;Laerm;861;48.808;9.006;2023-08-01T10:08:59;29.70;28.23;51.96;;
41704;Laerm;861;48.808;9.006;2023-08-01T10:11:33;29.52;28.00;30.83;;
41704;Laerm;861;48.808;9.006;2023-08-01T10:14:03;29.50;28.29;30.58;;
41704;Laerm;861;48.808;9.006;2023-08-01T10:16:31;29.49;28.28;30.62;;
41704;Laerm;861;48.808;9.006;2023-08-01T10:19:02;29.49;28.11;30.60;;
41704;Laerm;861;48.808;9.006;2023-08-01T10:21:30;29.48;28.21;30.61;;
41704;Laerm;861;48.808;9.006;2023-08-01T10:24:00;29.48;28.17;30.60;;
41704;Laerm;861;48.808;9.006;2023-08-01T10:26:27;29.49;27.85;30.70;;
41704;Laerm;861;48.808;9.006;2023-08-01T10:28:54;29.49;28.15;30.73;;
41704;Laerm;861;48.808;9.006;2023-08-01T10:31:21;29.57;28.17;45.84;;
41704;Laerm;861;48.808;9.006;2023-08-01T10:33:50;29.51;28.23;30.68;;
41704;Laerm;861;48.808;9.006;2023-08-01T10:36:23;29.51;28.14;30.73;;
41704;Laerm;861;48.808;9.006;2023-08-01T10:38:59;30.38;28.42;32.45;;
41704;Laerm;861;48.808;9.006;2023-08-01T10:41:36;32.73;30.64;34.42;;
41704;Laerm;861;48.808;9.006;2023-08-01T10:44:14;34.66;32.18;37.12;;
41704;Laerm;861;48.808;9.006;2023-08-01T10:46:57;36.65;35.17;38.20;;
41704;Laerm;861;48.808;9.006;2023-08-01T10:49:44;37.34;36.03;41.15;;
41704;Laerm;861;48.808;9.006;2023-08-01T10:52:26;37.43;36.16;39.34;;
41704;Laerm;861;48.808;9.006;2023-08-01T10:55:04;37.32;35.94;41.89;;
41704;Laerm;861;48.808;9.006;2023-08-01T10:57:38;37.15;35.82;39.18;;
41704;Laerm;861;48.808;9.006;2023-08-01T11:00:06;37.35;35.71;38.94;;
41704;Laerm;861;48.808;9.006;2023-08-01T11:02:36;37.61;36.23;41.31;;
41704;Laerm;861;48.808;9.006;2023-08-01T11:05:07;37.60;36.27;38.99;;
41704;Laerm;861;48.808;9.006;2023-08-01T11:07:35;37.63;36.31;39.80;;
41704;Laerm;861;48.808;9.006;2023-08-01T11:10:12;37.70;36.31;44.84;;
41704;Laerm;861;48.808;9.006;2023-08-01T11:12:43;38.09;36.38;53.58;;
41704;Laerm;861;48.808;9.006;2023-08-01T11:15:15;37.65;36.00;41.26;;
41704;Laerm;861;48.808;9.006;2023-08-01T11:17:54;37.73;36.41;47.20;;
41704;Laerm;861;48.808;9.006;2023-08-01T11:20:24;39.22;36.38;57.68;;
41704;Laerm;861;48.808;9.006;2023-08-01T11:23:02;37.71;36.40;42.97;;
41704;Laerm;861;48.808;9.006;2023-08-01T11:25:38;38.10;36.28;55.34;;
41704;Laerm;861;48.808;9.006;2023-08-01T11:28:14;37.67;36.38;42.54;;
41704;Laerm;861;48.808;9.006;2023-08-01T11:30:41;37.64;36.32;39.85;;
41704;Laerm;861;48.808;9.006;2023-08-01T11:33:25;37.68;36.27;48.19;;
41704;Laerm;861;48.808;9.006;2023-08-01T11:35:56;37.79;36.24;50.88;;
41704;Laerm;861;48.808;9.006;2023-08-01T11:38:33;37.62;36.02;38.94;;
41704;Laerm;861;48.808;9.006;2023-08-01T11:41:06;37.60;36.04;38.84;;
41704;Laerm;861;48.808;9.006;2023-08-01T11:43:43;37.60;36.33;38.85;;
41704;Laerm;861;48.808;9.006;2023-08-01T11:46:12;37.55;36.14;38.90;;
41704;Laerm;861;48.808;9.006;2023-08-01T11:48:44;37.56;36.21;39.95;;
41704;Laerm;861;48.808;9.006;2023-08-01T11:51:13;37.61;36.12;52.29;;
41704;Laerm;861;48.808;9.006;2023-08-01T11:53:39;37.93;36.12;53.48;;
41704;Laerm;861;48.808;9.006;2023-08-01T11:56:07;37.49;36.01;41.53;;
41704;Laerm;861;48.808;9.006;2023-08-01T11:58:42;37.53;36.21;38.98;;
41704;Laerm;861;48.808;9.006;2023-08-01T12:01:13;37.62;36.03;44.81;;
41704;Laerm;861;48.808;9.006;2023-08-01T12:03:54;38.87;36.10;63.32;;
41704;Laerm;861;48.808;9.006;2023-08-01T12:06:24;38.22;36.09;57.09;;
41704;Laerm;861;48.808;9.006;2023-08-01T12:08:53;37.53;36.17;46.28;;
41704;Laerm;861;48.808;9.006;2023-08-01T12:11:27;37.52;36.10;47.89;;
41704;Laerm;861;48.808;9.006;2023-08-01T12:14:14;37.43;36.04;39.20;;
41704;Laerm;861;48.808;9.006;2023-08-01T12:16:47;37.52;36.07;42.89;;
41704;Laerm;861;48.808;9.006;2023-08-01T12:19:21;37.60;35.93;50.66;;
41704;Laerm;861;48.808;9.006;2023-08-01T12:21:50;37.45;36.12;44.91;;
41704;Laerm;861;48.808;9.006;2023-08-01T12:24:17;37.50;36.19;43.30;;
41704;Laerm;861;48.808;9.006;2023-08-01T12:26:43;38.33;36.10;60.56;;
41704;Laerm;861;48.808;9.006;2023-08-01T12:29:10;37.48;36.06;40.11;;
41704;Laerm;861;48.808;9.006;2023-08-01T12:31:37;38.55;36.22;61.29;;
41704;Laerm;861;48.808;9.006;2023-08-01T12:34:03;37.56;36.08;44.46;;
41704;Laerm;861;48.808;9.006;2023-08-01T12:36:30;37.71;35.89;49.47;;
41704;Laerm;861;48.808;9.006;2023-08-01T12:38:56;37.76;36.07;49.72;;
41704;Laerm;861;48.808;9.006;2023-08-01T12:41:23;37.63;36.03;54.89;;
41704;Laerm;861;48.808;9.006;2023-08-01T12:43:50;37.45;35.93;43.16;;
41704;Laerm;861;48.808;9.006;2023-08-01T12:46:17;37.54;36.04;49.15;;
41704;Laerm;861;48.808;9.006;2023-08-01T12:48:45;37.39;35.97;38.80;;
41704;Laerm;861;48.808;9.006;2023-08-01T12:51:12;37.41;35.87;40.71;;
41704;Laerm;861;48.808;9.006;2023-08-01T12:53:40;37.47;36.13;38.69;;
41704;Laerm;861;48.808;9.006;2023-08-01T12:56:08;37.31;35.86;41.15;;
41704;Laerm;861;48.808;9.006;2023-08-01T12:58:34;37.33;35.38;47.12;;
41704;Laerm;861;48.808;9.006;2023-08-01T13:01:04;38.15;35.51;60.37;;
41704;Laerm;861;48.808;9.006;2023-08-01T13:03:30;37.25;35.33;47.23;;
41704;Laerm;861;48.808;9.006;2023-08-01T13:05:57;37.33;35.80;42.72;;
41704;Laerm;861;48.808;9.006;2023-08-01T13:08:24;37.35;35.76;38.73;;
41704;Laerm;861;48.808;9.006;2023-08-01T13:10:51;38.52;35.98;59.00;;
41704;Laerm;861;48.808;9.006;2023-08-01T13:13:19;37.35;35.73;40.23;;
41704;Laerm;861;48.808;9.006;2023-08-01T13:15:46;37.22;35.52;38.54;;
41704;Laerm;861;48.808;9.006;2023-08-01T13:18:13;37.31;35.94;40.58;;
41704;Laerm;861;48.808;9.006;2023-08-01T13:20:39;37.27;35.78;47.16;;
41704;Laerm;861;48.808;9.006;2023-08-01T13:23:06;37.17;35.93;38.67;;
41704;Laerm;861;48.808;9.006;2023-08-01T13:25:32;37.28;35.91;38.69;;
41704;Laerm;861;48.808;9.006;2023-08-01T13:27:59;37.30;35.97;38.77;;
41704;Laerm;861;48.808;9.006;2023-08-01T13:30:26;39.11;35.92;62.95;;
41704;Laerm;861;48.808;9.006;2023-08-01T13:32:52;37.30;35.87;39.63;;
41704;Laerm;861;48.808;9.006;2023-08-01T13:35:19;37.24;35.72;44.77;;
41704;Laerm;861;48.808;9.006;2023-08-01T13:37:45;37.12;35.69;41.72;;
41704;Laerm;861;48.808;9.006;2023-08-01T13:40:12;37.10;35.84;38.45;;
41704;Laerm;861;48.808;9.006;2023-08-01T13:42:41;37.16;35.74;44.05;;
41704;Laerm;861;48.808;9.006;2023-08-01T13:45:08;37.15;35.86;41.53;;
41704;Laerm;861;48.808;9.006;2023-08-01T13:47:35;37.28;35.63;46.89;;
41704;Laerm;861;48.808;9.006;2023-08-01T13:50:01;37.29;35.92;45.09;;
41704;Laerm;861;48.808;9.006;2023-08-01T13:52:28;37.38;35.89;48.38;;
41704;Laerm;861;48.808;9.006;2023-08-01T13:54:54;37.15;35.75;38.59;;
41704;Laerm;861;48.808;9.006;2023-08-01T13:57:21;37.15;35.76;38.70;;
41704;Laerm;861;48.808;9.006;2023-08-01T13:59:50;37.26;35.90;40.90;;
41704;Laerm;861;48.808;9.006;2023-08-01T14:02:17;37.30;35.52;44.53;;
41704;Laerm;861;48.808;9.006;2023-08-01T14:04:43;37.47;35.69;56.81;;
41704;Laerm;861;48.808;9.006;2023-08-01T14:07:10;37.49;35.32;55.57;;
41704;Laerm;861;48.808;9.006;2023-08-01T14:09:36;37.02;35.52;43.93;;
41704;Laerm;861;48.808;9.006;2023-08-01T14:12:05;37.00;35.45;40.27;;
41704;Laerm;861;48.808;9.006;2023-08-01T14:14:31;37.01;35.73;47.00;;